sensor_id;sensor_type;location;lat;lon;timestamp;temperature;humidity
22106;DHT22;11219;51.486;6.950;2022-08-03T00:02:11;22.40;75.10
22106;DHT22;11219;51.486;6.950;2022-08-03T00:04:38;22.30;75.30
22106;DHT22;11219;51.486;6.950;2022-08-03T00:07:05;22.30;75.40
22106;DHT22;11219;51.486;6.950;2022-08-03T00:09:32;22.50;75.60
22106;DHT22;11219;51.486;6.950;2022-08-03T00:11:59;22.20;75.80
22106;DHT22;11219;51.486;6.950;2022-08-03T00:14:25;22.20;76.00
22106;DHT22;11219;51.486;6.950;2022-08-03T00:16:54;22.10;76.10
22106;DHT22;11219;51.486;6.950;2022-08-03T00:19:20;22.10;76.30
22106;DHT22;11219;51.486;6.950;2022-08-03T00:21:47;22.00;76.40
22106;DHT22;11219;51.486;6.950;2022-08-03T00:24:14;22.00;76.60
22106;DHT22;11219;51.486;6.950;2022-08-03T00:26:41;22.00;76.70
22106;DHT22;11219;51.486;6.950;2022-08-03T00:29:08;22.00;76.90
22106;DHT22;11219;51.486;6.950;2022-08-03T00:31:35;21.90;77.10
22106;DHT22;11219;51.486;6.950;2022-08-03T00:34:03;22.00;77.40
22106;DHT22;11219;51.486;6.950;2022-08-03T00:36:29;21.90;77.40
22106;DHT22;11219;51.486;6.950;2022-08-03T00:38:56;21.80;77.70
22106;DHT22;11219;51.486;6.950;2022-08-03T00:41:23;21.80;77.90
22106;DHT22;11219;51.486;6.950;2022-08-03T00:43:50;21.80;78.00
22106;DHT22;11219;51.486;6.950;2022-08-03T00:46:17;21.80;78.20
22106;DHT22;11219;51.486;6.950;2022-08-03T00:48:45;21.80;78.30
22106;DHT22;11219;51.486;6.950;2022-08-03T00:51:14;21.70;78.50
22106;DHT22;11219;51.486;6.950;2022-08-03T00:53:41;21.70;78.90
22106;DHT22;11219;51.486;6.950;2022-08-03T01:01:32;21.60;79.40
22106;DHT22;11219;51.486;6.950;2022-08-03T01:03:58;21.50;79.50
22106;DHT22;11219;51.486;6.950;2022-08-03T01:06:33;21.40;79.80
22106;DHT22;11219;51.486;6.950;2022-08-03T01:09:08;21.50;80.10
22106;DHT22;11219;51.486;6.950;2022-08-03T01:11:47;21.40;80.30
22106;DHT22;11219;51.486;6.950;2022-08-03T01:14:21;21.40;80.50
22106;DHT22;11219;51.486;6.950;2022-08-03T01:16:58;21.30;80.60
22106;DHT22;11219;51.486;6.950;2022-08-03T01:19:48;21.30;80.90
22106;DHT22;11219;51.486;6.950;2022-08-03T01:25:25;21.30;81.10
22106;DHT22;11219;51.486;6.950;2022-08-03T01:28:01;21.20;81.30
22106;DHT22;11219;51.486;6.950;2022-08-03T01:30:34;21.20;81.30
22106;DHT22;11219;51.486;6.950;2022-08-03T01:33:04;21.20;81.50
22106;DHT22;11219;51.486;6.950;2022-08-03T01:35:35;21.20;81.50
22106;DHT22;11219;51.486;6.950;2022-08-03T01:38:08;22.70;82.50
22106;DHT22;11219;51.486;6.950;2022-08-03T01:40:39;21.20;81.80
22106;DHT22;11219;51.486;6.950;2022-08-03T01:43:08;21.20;82.00
22106;DHT22;11219;51.486;6.950;2022-08-03T01:45:38;22.60;82.90
22106;DHT22;11219;51.486;6.950;2022-08-03T01:48:06;21.20;82.20
22106;DHT22;11219;51.486;6.950;2022-08-03T01:50:33;21.20;82.40
22106;DHT22;11219;51.486;6.950;2022-08-03T01:53:01;21.20;82.50
22106;DHT22;11219;51.486;6.950;2022-08-03T01:55:28;21.20;83.40
22106;DHT22;11219;51.486;6.950;2022-08-03T01:57:59;21.10;82.70
22106;DHT22;11219;51.486;6.950;2022-08-03T02:00:29;21.10;82.90
22106;DHT22;11219;51.486;6.950;2022-08-03T02:02:58;21.10;83.00
22106;DHT22;11219;51.486;6.950;2022-08-03T02:05:26;21.10;83.00
22106;DHT22;11219;51.486;6.950;2022-08-03T02:07:54;21.10;83.30
22106;DHT22;11219;51.486;6.950;2022-08-03T02:10:22;21.00;83.50
22106;DHT22;11219;51.486;6.950;2022-08-03T02:12:49;21.10;83.60
22106;DHT22;11219;51.486;6.950;2022-08-03T02:15:18;21.20;84.00
22106;DHT22;11219;51.486;6.950;2022-08-03T02:17:47;21.00;84.00
22106;DHT22;11219;51.486;6.950;2022-08-03T02:20:15;21.00;84.00
22106;DHT22;11219;51.486;6.950;2022-08-03T02:22:43;20.90;84.20
22106;DHT22;11219;51.486;6.950;2022-08-03T02:25:11;20.90;84.30
22106;DHT22;11219;51.486;6.950;2022-08-03T02:27:42;20.80;84.50
22106;DHT22;11219;51.486;6.950;2022-08-03T02:30:12;20.80;84.60
22106;DHT22;11219;51.486;6.950;2022-08-03T02:32:41;21.40;85.10
22106;DHT22;11219;51.486;6.950;2022-08-03T02:35:12;20.80;85.70
22106;DHT22;11219;51.486;6.950;2022-08-03T02:37:45;20.80;85.10
22106;DHT22;11219;51.486;6.950;2022-08-03T02:40:14;20.80;85.20
22106;DHT22;11219;51.486;6.950;2022-08-03T02:42:43;20.80;85.40
22106;DHT22;11219;51.486;6.950;2022-08-03T02:45:11;20.70;85.50
22106;DHT22;11219;51.486;6.950;2022-08-03T02:47:41;20.70;85.80
22106;DHT22;11219;51.486;6.950;2022-08-03T02:50:11;20.70;85.80
22106;DHT22;11219;51.486;6.950;2022-08-03T02:52:38;20.70;86.00
22106;DHT22;11219;51.486;6.950;2022-08-03T02:55:09;20.60;86.10
22106;DHT22;11219;51.486;6.950;2022-08-03T02:57:37;20.60;86.30
22106;DHT22;11219;51.486;6.950;2022-08-03T03:00:06;20.60;86.50
22106;DHT22;11219;51.486;6.950;2022-08-03T03:02:34;20.60;86.70
22106;DHT22;11219;51.486;6.950;2022-08-03T03:05:01;20.50;86.80
22106;DHT22;11219;51.486;6.950;2022-08-03T03:07:29;20.50;87.00
22106;DHT22;11219;51.486;6.950;2022-08-03T03:09:57;20.50;87.10
22106;DHT22;11219;51.486;6.950;2022-08-03T03:12:25;20.50;87.20
22106;DHT22;11219;51.486;6.950;2022-08-03T03:14:53;20.60;87.40
22106;DHT22;11219;51.486;6.950;2022-08-03T03:17:20;20.50;87.40
22106;DHT22;11219;51.486;6.950;2022-08-03T03:19:49;18.70;86.50
22106;DHT22;11219;51.486;6.950;2022-08-03T03:22:16;20.50;87.80
22106;DHT22;11219;51.486;6.950;2022-08-03T03:24:44;20.40;88.80
22106;DHT22;11219;51.486;6.950;2022-08-03T03:27:13;20.40;88.30
22106;DHT22;11219;51.486;6.950;2022-08-03T03:29:42;20.30;88.30
22106;DHT22;11219;51.486;6.950;2022-08-03T03:32:09;20.30;88.50
22106;DHT22;11219;51.486;6.950;2022-08-03T03:34:36;20.30;88.60
22106;DHT22;11219;51.486;6.950;2022-08-03T03:37:03;20.30;89.60
22106;DHT22;11219;51.486;6.950;2022-08-03T03:39:30;20.30;88.90
22106;DHT22;11219;51.486;6.950;2022-08-03T03:41:58;20.30;89.20
22106;DHT22;11219;51.486;6.950;2022-08-03T03:44:26;20.30;89.10
22106;DHT22;11219;51.486;6.950;2022-08-03T03:46:54;20.20;89.30
22106;DHT22;11219;51.486;6.950;2022-08-03T03:49:21;20.20;89.30
22106;DHT22;11219;51.486;6.950;2022-08-03T03:51:51;20.20;89.50
22106;DHT22;11219;51.486;6.950;2022-08-03T03:54:19;20.40;89.90
22106;DHT22;11219;51.486;6.950;2022-08-03T03:57:00;20.50;89.90
22106;DHT22;11219;51.486;6.950;2022-08-03T03:59:27;20.30;89.80
22106;DHT22;11219;51.486;6.950;2022-08-03T04:01:55;20.20;90.00
22106;DHT22;11219;51.486;6.950;2022-08-03T04:04:22;20.20;90.00
22106;DHT22;11219;51.486;6.950;2022-08-03T04:07:06;20.20;90.10
22106;DHT22;11219;51.486;6.950;2022-08-03T04:09:51;20.30;90.20
22106;DHT22;11219;51.486;6.950;2022-08-03T04:12:36;20.10;90.30
22106;DHT22;11219;51.486;6.950;2022-08-03T04:15:05;20.10;90.40
22106;DHT22;11219;51.486;6.950;2022-08-03T04:17:35;20.10;90.40
22106;DHT22;11219;51.486;6.950;2022-08-03T04:20:03;20.10;90.40
22106;DHT22;11219;51.486;6.950;2022-08-03T04:22:31;20.10;90.50
22106;DHT22;11219;51.486;6.950;2022-08-03T04:25:02;20.20;90.60
22106;DHT22;11219;51.486;6.950;2022-08-03T04:27:33;20.30;90.60
22106;DHT22;11219;51.486;6.950;2022-08-03T04:30:04;20.50;90.60
22106;DHT22;11219;51.486;6.950;2022-08-03T04:32:33;20.60;90.40
22106;DHT22;11219;51.486;6.950;2022-08-03T04:35:01;20.70;90.30
22106;DHT22;11219;51.486;6.950;2022-08-03T04:37:34;20.90;90.20
22106;DHT22;11219;51.486;6.950;2022-08-03T04:40:06;21.00;90.10
22106;DHT22;11219;51.486;6.950;2022-08-03T04:42:35;21.10;90.00
22106;DHT22;11219;51.486;6.950;2022-08-03T04:45:04;21.20;89.60
22106;DHT22;11219;51.486;6.950;2022-08-03T04:47:34;21.40;89.40
22106;DHT22;11219;51.486;6.950;2022-08-03T04:50:02;21.50;89.20
22106;DHT22;11219;51.486;6.950;2022-08-03T04:52:29;21.50;88.90
22106;DHT22;11219;51.486;6.950;2022-08-03T04:54:56;21.60;88.60
22106;DHT22;11219;51.486;6.950;2022-08-03T04:57:23;21.60;88.40
22106;DHT22;11219;51.486;6.950;2022-08-03T04:59:51;21.70;88.30
22106;DHT22;11219;51.486;6.950;2022-08-03T05:02:19;22.00;88.40
22106;DHT22;11219;51.486;6.950;2022-08-03T05:04:48;21.80;88.00
22106;DHT22;11219;51.486;6.950;2022-08-03T05:07:16;21.90;87.90
22106;DHT22;11219;51.486;6.950;2022-08-03T05:09:43;22.00;87.70
22106;DHT22;11219;51.486;6.950;2022-08-03T05:12:10;22.00;87.40
22106;DHT22;11219;51.486;6.950;2022-08-03T05:14:38;22.10;87.10
22106;DHT22;11219;51.486;6.950;2022-08-03T05:17:05;22.20;87.00
22106;DHT22;11219;51.486;6.950;2022-08-03T05:19:31;22.30;86.80
22106;DHT22;11219;51.486;6.950;2022-08-03T05:22:00;22.30;86.70
22106;DHT22;11219;51.486;6.950;2022-08-03T05:24:27;22.40;86.50
22106;DHT22;11219;51.486;6.950;2022-08-03T05:26:54;22.40;86.20
22106;DHT22;11219;51.486;6.950;2022-08-03T05:29:21;22.50;86.00
22106;DHT22;11219;51.486;6.950;2022-08-03T05:31:48;22.60;85.80
22106;DHT22;11219;51.486;6.950;2022-08-03T05:34:15;22.60;85.60
22106;DHT22;11219;51.486;6.950;2022-08-03T05:36:42;22.70;85.50
22106;DHT22;11219;51.486;6.950;2022-08-03T05:39:10;22.70;85.20
22106;DHT22;11219;51.486;6.950;2022-08-03T05:41:37;22.80;85.00
22106;DHT22;11219;51.486;6.950;2022-08-03T05:44:04;23.30;85.00
22106;DHT22;11219;51.486;6.950;2022-08-03T05:46:31;23.00;84.60
22106;DHT22;11219;51.486;6.950;2022-08-03T05:48:58;23.00;84.30
22106;DHT22;11219;51.486;6.950;2022-08-03T05:51:24;23.10;84.00
22106;DHT22;11219;51.486;6.950;2022-08-03T05:53:52;23.20;83.70
22106;DHT22;11219;51.486;6.950;2022-08-03T05:56:22;23.30;83.40
22106;DHT22;11219;51.486;6.950;2022-08-03T05:58:50;23.40;83.30
22106;DHT22;11219;51.486;6.950;2022-08-03T06:01:18;23.50;83.10
22106;DHT22;11219;51.486;6.950;2022-08-03T06:03:46;23.50;82.80
22106;DHT22;11219;51.486;6.950;2022-08-03T06:06:13;23.60;82.60
22106;DHT22;11219;51.486;6.950;2022-08-03T06:08:40;23.60;82.40
22106;DHT22;11219;51.486;6.950;2022-08-03T06:11:07;23.70;82.30
22106;DHT22;11219;51.486;6.950;2022-08-03T06:13:36;23.70;81.90
22106;DHT22;11219;51.486;6.950;2022-08-03T06:16:03;23.80;81.70
22106;DHT22;11219;51.486;6.950;2022-08-03T06:18:30;23.90;81.50
22106;DHT22;11219;51.486;6.950;2022-08-03T06:20:57;24.10;81.30
22106;DHT22;11219;51.486;6.950;2022-08-03T06:23:24;24.60;81.00
22106;DHT22;11219;51.486;6.950;2022-08-03T06:25:51;26.60;78.20
22106;DHT22;11219;51.486;6.950;2022-08-03T06:28:17;29.20;72.30
22106;DHT22;11219;51.486;6.950;2022-08-03T06:30:46;31.30;67.00
22106;DHT22;11219;51.486;6.950;2022-08-03T06:33:12;32.60;63.50
22106;DHT22;11219;51.486;6.950;2022-08-03T06:35:39;34.10;59.90
22106;DHT22;11219;51.486;6.950;2022-08-03T06:38:06;35.40;57.30
22106;DHT22;11219;51.486;6.950;2022-08-03T06:40:34;36.30;55.10
22106;DHT22;11219;51.486;6.950;2022-08-03T06:43:05;37.00;53.50
22106;DHT22;11219;51.486;6.950;2022-08-03T06:45:33;37.60;51.70
22106;DHT22;11219;51.486;6.950;2022-08-03T06:48:04;38.00;50.50
22106;DHT22;11219;51.486;6.950;2022-08-03T06:50:32;38.50;49.50
22106;DHT22;11219;51.486;6.950;2022-08-03T06:52:59;38.80;48.80
22106;DHT22;11219;51.486;6.950;2022-08-03T06:55:26;39.30;47.90
22106;DHT22;11219;51.486;6.950;2022-08-03T06:57:56;39.50;46.80
22106;DHT22;11219;51.486;6.950;2022-08-03T07:00:22;40.10;46.40
22106;DHT22;11219;51.486;6.950;2022-08-03T07:02:49;40.70;45.30
22106;DHT22;11219;51.486;6.950;2022-08-03T07:05:18;40.90;44.80
22106;DHT22;11219;51.486;6.950;2022-08-03T07:07:45;41.00;44.20
22106;DHT22;11219;51.486;6.950;2022-08-03T07:10:12;40.50;44.20
22106;DHT22;11219;51.486;6.950;2022-08-03T07:12:39;39.50;44.70
22106;DHT22;11219;51.486;6.950;2022-08-03T07:15:07;38.30;45.60
22106;DHT22;11219;51.486;6.950;2022-08-03T07:17:35;37.70;46.40
22106;DHT22;11219;51.486;6.950;2022-08-03T07:20:04;37.30;46.50
22106;DHT22;11219;51.486;6.950;2022-08-03T07:22:34;37.40;46.60
22106;DHT22;11219;51.486;6.950;2022-08-03T07:25:02;38.30;45.40
22106;DHT22;11219;51.486;6.950;2022-08-03T07:27:29;38.80;44.30
22106;DHT22;11219;51.486;6.950;2022-08-03T07:29:57;39.30;43.90
22106;DHT22;11219;51.486;6.950;2022-08-03T07:32:24;39.70;43.40
22106;DHT22;11219;51.486;6.950;2022-08-03T07:34:52;40.10;42.90
22106;DHT22;11219;51.486;6.950;2022-08-03T07:37:19;40.40;42.30
22106;DHT22;11219;51.486;6.950;2022-08-03T07:39:47;40.60;41.90
22106;DHT22;11219;51.486;6.950;2022-08-03T07:42:14;40.50;42.00
22106;DHT22;11219;51.486;6.950;2022-08-03T07:44:41;40.30;42.20
22106;DHT22;11219;51.486;6.950;2022-08-03T07:47:08;40.30;41.70
22106;DHT22;11219;51.486;6.950;2022-08-03T07:49:38;40.10;41.30
22106;DHT22;11219;51.486;6.950;2022-08-03T07:52:06;39.30;41.90
22106;DHT22;11219;51.486;6.950;2022-08-03T07:54:52;38.60;42.90
22106;DHT22;11219;51.486;6.950;2022-08-03T07:57:19;39.00;43.00
22106;DHT22;11219;51.486;6.950;2022-08-03T07:59:46;39.70;42.00
22106;DHT22;11219;51.486;6.950;2022-08-03T08:02:13;40.50;41.50
22106;DHT22;11219;51.486;6.950;2022-08-03T08:04:40;40.90;40.50
22106;DHT22;11219;51.486;6.950;2022-08-03T08:07:07;41.00;40.40
22106;DHT22;11219;51.486;6.950;2022-08-03T08:09:34;41.00;40.20
22106;DHT22;11219;51.486;6.950;2022-08-03T08:12:03;41.10;40.00
22106;DHT22;11219;51.486;6.950;2022-08-03T08:14:30;41.20;40.00
22106;DHT22;11219;51.486;6.950;2022-08-03T08:16:57;41.30;39.40
22106;DHT22;11219;51.486;6.950;2022-08-03T08:19:24;41.50;39.60
22106;DHT22;11219;51.486;6.950;2022-08-03T08:21:51;41.80;39.10
22106;DHT22;11219;51.486;6.950;2022-08-03T08:24:18;41.40;39.10
22106;DHT22;11219;51.486;6.950;2022-08-03T08:26:45;40.50;39.60
22106;DHT22;11219;51.486;6.950;2022-08-03T08:29:13;40.10;40.30
22106;DHT22;11219;51.486;6.950;2022-08-03T08:31:40;40.10;40.30
22106;DHT22;11219;51.486;6.950;2022-08-03T08:34:07;40.10;40.40
22106;DHT22;11219;51.486;6.950;2022-08-03T08:36:35;39.90;40.30
22106;DHT22;11219;51.486;6.950;2022-08-03T08:39:02;39.80;40.10
22106;DHT22;11219;51.486;6.950;2022-08-03T08:41:29;40.10;40.00
22106;DHT22;11219;51.486;6.950;2022-08-03T08:43:58;40.40;39.60
22106;DHT22;11219;51.486;6.950;2022-08-03T08:46:29;40.60;39.30
22106;DHT22;11219;51.486;6.950;2022-08-03T08:48:58;40.50;39.20
22106;DHT22;11219;51.486;6.950;2022-08-03T08:51:28;40.10;39.60
22106;DHT22;11219;51.486;6.950;2022-08-03T08:53:57;39.50;40.10
22106;DHT22;11219;51.486;6.950;2022-08-03T08:56:27;39.60;40.40
22106;DHT22;11219;51.486;6.950;2022-08-03T08:58:57;40.20;39.80
22106;DHT22;11219;51.486;6.950;2022-08-03T09:01:24;40.50;39.30
22106;DHT22;11219;51.486;6.950;2022-08-03T09:03:53;39.60;40.00
22106;DHT22;11219;51.486;6.950;2022-08-03T09:06:20;39.70;40.40
22106;DHT22;11219;51.486;6.950;2022-08-03T09:08:47;40.20;39.70
22106;DHT22;11219;51.486;6.950;2022-08-03T09:11:14;40.90;39.00
22106;DHT22;11219;51.486;6.950;2022-08-03T09:13:41;41.10;38.70
22106;DHT22;11219;51.486;6.950;2022-08-03T09:16:11;41.00;38.20
22106;DHT22;11219;51.486;6.950;2022-08-03T09:18:39;40.60;38.30
22106;DHT22;11219;51.486;6.950;2022-08-03T09:21:19;40.70;38.40
22106;DHT22;11219;51.486;6.950;2022-08-03T09:23:48;41.00;38.00
22106;DHT22;11219;51.486;6.950;2022-08-03T09:26:23;41.00;37.80
22106;DHT22;11219;51.486;6.950;2022-08-03T09:28:55;40.90;37.70
22106;DHT22;11219;51.486;6.950;2022-08-03T09:31:32;40.90;37.90
22106;DHT22;11219;51.486;6.950;2022-08-03T09:34:01;41.00;37.90
22106;DHT22;11219;51.486;6.950;2022-08-03T09:36:37;40.80;37.60
22106;DHT22;11219;51.486;6.950;2022-08-03T09:39:06;40.40;37.20
22106;DHT22;11219;51.486;6.950;2022-08-03T09:41:36;39.90;37.80
22106;DHT22;11219;51.486;6.950;2022-08-03T09:44:04;39.60;38.10
22106;DHT22;11219;51.486;6.950;2022-08-03T09:46:31;39.40;38.20
22106;DHT22;11219;51.486;6.950;2022-08-03T09:49:12;39.20;38.40
22106;DHT22;11219;51.486;6.950;2022-08-03T09:51:41;39.00;38.40
22106;DHT22;11219;51.486;6.950;2022-08-03T09:54:08;38.70;38.70
22106;DHT22;11219;51.486;6.950;2022-08-03T09:56:39;38.30;39.30
22106;DHT22;11219;51.486;6.950;2022-08-03T09:59:07;37.70;40.30
22106;DHT22;11219;51.486;6.950;2022-08-03T10:01:34;36.70;41.30
22106;DHT22;11219;51.486;6.950;2022-08-03T10:04:03;36.10;42.30
22106;DHT22;11219;51.486;6.950;2022-08-03T10:06:30;35.50;42.90
22106;DHT22;11219;51.486;6.950;2022-08-03T10:09:06;34.90;43.80
22106;DHT22;11219;51.486;6.950;2022-08-03T10:11:34;34.60;44.50
22106;DHT22;11219;51.486;6.950;2022-08-03T10:14:03;34.30;44.80
22106;DHT22;11219;51.486;6.950;2022-08-03T10:16:33;34.00;45.30
22106;DHT22;11219;51.486;6.950;2022-08-03T10:19:05;33.70;45.90
22106;DHT22;11219;51.486;6.950;2022-08-03T10:21:34;33.50;46.20
22106;DHT22;11219;51.486;6.950;2022-08-03T10:24:05;33.30;46.40
22106;DHT22;11219;51.486;6.950;2022-08-03T10:26:34;33.20;46.50
22106;DHT22;11219;51.486;6.950;2022-08-03T10:29:03;33.00;46.60
22106;DHT22;11219;51.486;6.950;2022-08-03T10:31:35;32.70;46.90
22106;DHT22;11219;51.486;6.950;2022-08-03T10:34:08;32.60;47.10
22106;DHT22;11219;51.486;6.950;2022-08-03T10:36:39;32.40;47.40
22106;DHT22;11219;51.486;6.950;2022-08-03T10:39:07;32.40;47.70
22106;DHT22;11219;51.486;6.950;2022-08-03T10:41:39;32.30;48.00
22106;DHT22;11219;51.486;6.950;2022-08-03T10:44:09;32.30;48.10
22106;DHT22;11219;51.486;6.950;2022-08-03T10:46:38;32.30;48.20
22106;DHT22;11219;51.486;6.950;2022-08-03T10:49:07;32.40;48.30
22106;DHT22;11219;51.486;6.950;2022-08-03T10:51:34;32.40;48.20
22106;DHT22;11219;51.486;6.950;2022-08-03T10:54:01;32.50;47.90
22106;DHT22;11219;51.486;6.950;2022-08-03T10:56:40;32.60;48.10
22106;DHT22;11219;51.486;6.950;2022-08-03T10:59:57;32.60;48.20
22106;DHT22;11219;51.486;6.950;2022-08-03T11:05:26;32.90;48.30
22106;DHT22;11219;51.486;6.950;2022-08-03T11:08:25;33.00;48.00
22106;DHT22;11219;51.486;6.950;2022-08-03T11:10:54;33.10;47.70
22106;DHT22;11219;51.486;6.950;2022-08-03T11:13:24;33.00;47.50
22106;DHT22;11219;51.486;6.950;2022-08-03T11:15:55;33.00;47.60
22106;DHT22;11219;51.486;6.950;2022-08-03T11:18:23;33.10;47.60
22106;DHT22;11219;51.486;6.950;2022-08-03T11:20:51;33.20;47.40
22106;DHT22;11219;51.486;6.950;2022-08-03T11:23:20;33.30;47.30
22106;DHT22;11219;51.486;6.950;2022-08-03T11:26:09;33.40;47.20
22106;DHT22;11219;51.486;6.950;2022-08-03T11:28:38;33.50;47.00
22106;DHT22;11219;51.486;6.950;2022-08-03T11:31:44;33.50;46.70
22106;DHT22;11219;51.486;6.950;2022-08-03T11:34:14;33.70;46.70
22106;DHT22;11219;51.486;6.950;2022-08-03T11:37:19;33.50;46.60
22106;DHT22;11219;51.486;6.950;2022-08-03T11:39:48;33.40;46.70
22106;DHT22;11219;51.486;6.950;2022-08-03T11:42:37;33.50;47.00
22106;DHT22;11219;51.486;6.950;2022-08-03T11:45:07;33.50;46.70
22106;DHT22;11219;51.486;6.950;2022-08-03T11:47:37;33.60;46.90
22106;DHT22;11219;51.486;6.950;2022-08-03T11:50:05;33.60;47.00
22106;DHT22;11219;51.486;6.950;2022-08-03T11:52:37;33.60;47.30
22106;DHT22;11219;51.486;6.950;2022-08-03T11:55:12;33.70;47.10
22106;DHT22;11219;51.486;6.950;2022-08-03T11:57:40;33.50;46.90
22106;DHT22;11219;51.486;6.950;2022-08-03T12:00:36;33.40;46.90
22106;DHT22;11219;51.486;6.950;2022-08-03T12:03:05;33.30;46.80
22106;DHT22;11219;51.486;6.950;2022-08-03T12:05:33;33.20;47.00
22106;DHT22;11219;51.486;6.950;2022-08-03T12:08:00;33.10;47.10
22106;DHT22;11219;51.486;6.950;2022-08-03T12:10:27;33.20;47.20
22106;DHT22;11219;51.486;6.950;2022-08-03T12:12:55;33.30;47.20
22106;DHT22;11219;51.486;6.950;2022-08-03T12:15:26;33.70;47.40
22106;DHT22;11219;51.486;6.950;2022-08-03T12:17:55;33.80;47.30
22106;DHT22;11219;51.486;6.950;2022-08-03T12:20:24;33.80;47.10
22106;DHT22;11219;51.486;6.950;2022-08-03T12:22:51;33.80;47.10
22106;DHT22;11219;51.486;6.950;2022-08-03T12:25:23;33.70;46.90
22106;DHT22;11219;51.486;6.950;2022-08-03T12:27:51;33.60;47.10
22106;DHT22;11219;51.486;6.950;2022-08-03T12:30:18;33.50;47.20
22106;DHT22;11219;51.486;6.950;2022-08-03T12:32:45;33.50;47.30
22106;DHT22;11219;51.486;6.950;2022-08-03T12:35:22;33.40;47.20
22106;DHT22;11219;51.486;6.950;2022-08-03T12:37:50;33.60;47.30
22106;DHT22;11219;51.486;6.950;2022-08-03T12:40:24;33.60;47.30
22106;DHT22;11219;51.486;6.950;2022-08-03T12:42:52;33.70;47.10
22106;DHT22;11219;51.486;6.950;2022-08-03T12:45:20;33.60;46.90
22106;DHT22;11219;51.486;6.950;2022-08-03T12:47:52;33.80;46.70
22106;DHT22;11219;51.486;6.950;2022-08-03T12:50:28;33.90;46.80
22106;DHT22;11219;51.486;6.950;2022-08-03T12:52:56;34.10;46.40
22106;DHT22;11219;51.486;6.950;2022-08-03T12:55:24;34.10;46.20
22106;DHT22;11219;51.486;6.950;2022-08-03T12:57:58;34.20;46.00
22106;DHT22;11219;51.486;6.950;2022-08-03T13:00:25;34.20;45.60
22106;DHT22;11219;51.486;6.950;2022-08-03T13:02:58;34.50;45.50
22106;DHT22;11219;51.486;6.950;2022-08-03T13:05:27;34.50;45.40
22106;DHT22;11219;51.486;6.950;2022-08-03T13:07:54;34.50;45.30
22106;DHT22;11219;51.486;6.950;2022-08-03T13:10:28;34.60;45.10
22106;DHT22;11219;51.486;6.950;2022-08-03T13:12:55;34.80;45.00
22106;DHT22;11219;51.486;6.950;2022-08-03T13:15:25;34.60;44.70
22106;DHT22;11219;51.486;6.950;2022-08-03T13:17:55;35.00;44.80
22106;DHT22;11219;51.486;6.950;2022-08-03T13:20:22;35.00;44.60
22106;DHT22;11219;51.486;6.950;2022-08-03T13:22:50;35.10;44.20
22106;DHT22;11219;51.486;6.950;2022-08-03T13:25:17;35.20;43.90
22106;DHT22;11219;51.486;6.950;2022-08-03T13:27:45;35.30;44.00
22106;DHT22;11219;51.486;6.950;2022-08-03T13:30:12;35.40;44.00
22106;DHT22;11219;51.486;6.950;2022-08-03T13:32:39;35.60;44.00
22106;DHT22;11219;51.486;6.950;2022-08-03T13:35:07;35.90;43.90
22106;DHT22;11219;51.486;6.950;2022-08-03T13:37:34;35.90;43.70
22106;DHT22;11219;51.486;6.950;2022-08-03T13:40:04;35.80;43.10
22106;DHT22;11219;51.486;6.950;2022-08-03T13:42:33;35.80;43.20
22106;DHT22;11219;51.486;6.950;2022-08-03T13:45:01;35.70;43.20
22106;DHT22;11219;51.486;6.950;2022-08-03T13:47:28;35.60;43.10
22106;DHT22;11219;51.486;6.950;2022-08-03T13:49:55;35.60;43.10
22106;DHT22;11219;51.486;6.950;2022-08-03T13:52:22;35.70;43.30
22106;DHT22;11219;51.486;6.950;2022-08-03T13:54:49;35.70;43.20
22106;DHT22;11219;51.486;6.950;2022-08-03T13:57:17;35.60;43.10
22106;DHT22;11219;51.486;6.950;2022-08-03T13:59:44;35.60;42.70
22106;DHT22;11219;51.486;6.950;2022-08-03T14:02:11;35.70;42.60
22106;DHT22;11219;51.486;6.950;2022-08-03T14:04:38;35.90;42.50
22106;DHT22;11219;51.486;6.950;2022-08-03T14:07:05;36.20;42.50
22106;DHT22;11219;51.486;6.950;2022-08-03T14:09:31;36.20;42.20
22106;DHT22;11219;51.486;6.950;2022-08-03T14:11:59;36.20;42.80
22106;DHT22;11219;51.486;6.950;2022-08-03T14:14:27;36.10;42.00
22106;DHT22;11219;51.486;6.950;2022-08-03T14:16:54;36.00;42.10
22106;DHT22;11219;51.486;6.950;2022-08-03T14:19:21;35.90;42.20
22106;DHT22;11219;51.486;6.950;2022-08-03T14:21:47;35.90;41.80
22106;DHT22;11219;51.486;6.950;2022-08-03T14:24:14;36.10;42.00
22106;DHT22;11219;51.486;6.950;2022-08-03T14:26:41;36.00;41.50
22106;DHT22;11219;51.486;6.950;2022-08-03T14:29:08;36.20;41.40
22106;DHT22;11219;51.486;6.950;2022-08-03T14:31:37;36.50;41.30
22106;DHT22;11219;51.486;6.950;2022-08-03T14:34:04;36.40;41.40
22106;DHT22;11219;51.486;6.950;2022-08-03T14:36:30;36.30;41.40
22106;DHT22;11219;51.486;6.950;2022-08-03T14:38:57;36.50;41.40
22106;DHT22;11219;51.486;6.950;2022-08-03T14:41:24;36.70;41.00
22106;DHT22;11219;51.486;6.950;2022-08-03T14:43:51;36.90;40.70
22106;DHT22;11219;51.486;6.950;2022-08-03T14:46:19;36.90;40.20
22106;DHT22;11219;51.486;6.950;2022-08-03T14:48:47;36.80;40.10
22106;DHT22;11219;51.486;6.950;2022-08-03T14:51:14;36.80;40.40
22106;DHT22;11219;51.486;6.950;2022-08-03T14:53:40;36.90;40.50
22106;DHT22;11219;51.486;6.950;2022-08-03T14:56:07;37.20;40.20
22106;DHT22;11219;51.486;6.950;2022-08-03T14:58:34;37.60;39.90
22106;DHT22;11219;51.486;6.950;2022-08-03T15:01:01;37.70;39.60
22106;DHT22;11219;51.486;6.950;2022-08-03T15:03:28;37.50;39.30
22106;DHT22;11219;51.486;6.950;2022-08-03T15:05:56;37.50;39.00
22106;DHT22;11219;51.486;6.950;2022-08-03T15:08:24;37.50;39.20
22106;DHT22;11219;51.486;6.950;2022-08-03T15:10:52;37.70;39.00
22106;DHT22;11219;51.486;6.950;2022-08-03T15:13:19;38.00;38.90
22106;DHT22;11219;51.486;6.950;2022-08-03T15:15:46;37.90;38.10
22106;DHT22;11219;51.486;6.950;2022-08-03T15:18:14;37.80;38.20
22106;DHT22;11219;51.486;6.950;2022-08-03T15:20:42;37.80;38.10
22106;DHT22;11219;51.486;6.950;2022-08-03T15:23:10;38.10;37.90
22106;DHT22;11219;51.486;6.950;2022-08-03T15:25:37;38.30;37.40
22106;DHT22;11219;51.486;6.950;2022-08-03T15:28:04;38.30;37.10
22106;DHT22;11219;51.486;6.950;2022-08-03T15:30:31;38.20;36.90
22106;DHT22;11219;51.486;6.950;2022-08-03T15:33:01;38.00;37.00
22106;DHT22;11219;51.486;6.950;2022-08-03T15:35:28;38.30;37.10
22106;DHT22;11219;51.486;6.950;2022-08-03T15:37:55;37.90;36.90
22106;DHT22;11219;51.486;6.950;2022-08-03T15:40:23;37.70;36.60
22106;DHT22;11219;51.486;6.950;2022-08-03T15:42:50;37.60;36.80
22106;DHT22;11219;51.486;6.950;2022-08-03T15:45:16;37.60;36.80
22106;DHT22;11219;51.486;6.950;2022-08-03T15:47:43;37.70;36.80
22106;DHT22;11219;51.486;6.950;2022-08-03T15:50:10;37.60;36.60
22106;DHT22;11219;51.486;6.950;2022-08-03T15:52:37;37.80;36.70
22106;DHT22;11219;51.486;6.950;2022-08-03T15:55:05;37.90;36.40